Time;durP1;ratioP1;P1;durP2;ratioP2;P2;SDS_P1;SDS_P2;PMS_P1;PMS_P2;Temp;Humidity;BMP_temperature;BMP_pressure;BME280_temperature;BME280_humidity;BME280_pressure;Samples;Min_cycle;Max_cycle;Signal;HPM_P1;HPM_P2
2024/02/25 00:01:17;;;;;;;3.17;0.83;;;6.70;94.80;;;;;;5041522;28;20022;-91
2024/02/25 00:03:43;;;;;;;2.27;0.83;;;6.70;94.90;;;;;;5042925;28;20049;-92
2024/02/25 00:06:09;;;;;;;3.90;0.80;;;6.60;94.90;;;;;;5044931;28;20033;-92
2024/02/25 00:08:36;;;;;;;5.10;0.70;;;6.70;95.00;;;;;;5047280;28;20049;-87
2024/02/25 00:11:02;;;;;;;4.90;0.73;;;6.70;95.00;;;;;;5045758;28;20049;-91
2024/02/25 00:13:27;;;;;;;2.70;0.90;;;6.70;95.10;;;;;;5044988;28;20020;-91
2024/02/25 00:15:53;;;;;;;4.10;0.80;;;6.70;95.20;;;;;;5044355;28;20396;-92
2024/02/25 00:18:19;;;;;;;3.80;0.80;;;6.70;95.20;;;;;;5044808;28;20017;-91
2024/02/25 00:20:45;;;;;;;2.97;0.87;;;6.70;95.20;;;;;;5044969;28;20083;-90
2024/02/25 00:23:11;;;;;;;2.40;0.60;;;6.70;95.30;;;;;;5044232;28;20587;-92
2024/02/25 00:25:37;;;;;;;2.37;0.70;;;6.70;95.40;;;;;;5047116;28;20030;-93
2024/02/25 00:28:03;;;;;;;3.87;1.00;;;6.70;95.40;;;;;;5044661;28;20045;-91
2024/02/25 00:30:29;;;;;;;2.90;0.90;;;6.70;95.50;;;;;;5045507;28;20029;-93
2024/02/25 00:32:55;;;;;;;3.63;0.70;;;6.80;95.60;;;;;;5043312;28;20026;-92
2024/02/25 00:35:21;;;;;;;2.73;0.60;;;6.80;95.60;;;;;;5042856;28;20026;-92
2024/02/25 00:37:47;;;;;;;6.17;0.73;;;6.70;95.60;;;;;;5043879;28;20045;-90
2024/02/25 00:40:14;;;;;;;3.37;0.73;;;6.70;95.60;;;;;;5042745;28;20025;-92
2024/02/25 00:42:40;;;;;;;2.50;0.57;;;6.70;95.70;;;;;;5044366;28;20025;-91
2024/02/25 00:45:06;;;;;;;3.53;0.70;;;6.70;95.70;;;;;;5042083;28;20071;-91
2024/02/25 00:47:32;;;;;;;2.97;0.70;;;6.70;95.80;;;;;;5043573;28;20025;-90
2024/02/25 00:49:58;;;;;;;3.83;0.60;;;6.70;95.90;;;;;;5043821;28;20034;-89
2024/02/25 00:52:25;;;;;;;2.10;0.70;;;6.70;95.90;;;;;;5042706;28;20033;-92
2024/02/25 00:54:50;;;;;;;6.17;0.90;;;6.70;96.00;;;;;;5043619;28;20029;-92
2024/02/25 00:57:16;;;;;;;2.67;0.60;;;6.70;96.00;;;;;;5044102;28;20081;-91
2024/02/25 00:59:42;;;;;;;2.93;0.67;;;6.70;96.10;;;;;;5045680;28;20075;-92
2024/02/25 01:02:08;;;;;;;3.47;0.70;;;6.70;96.20;;;;;;5046320;28;20108;-92
2024/02/25 01:04:33;;;;;;;2.10;0.67;;;6.70;96.30;;;;;;5057561;28;20121;-94
2024/02/25 01:06:59;;;;;;;2.27;0.70;;;6.70;96.30;;;;;;5046433;28;20032;-93
2024/02/25 01:09:25;;;;;;;4.00;0.73;;;6.70;96.40;;;;;;5064475;28;20485;-92
2024/02/25 01:11:52;;;;;;;2.00;0.63;;;6.70;96.60;;;;;;5046142;28;20384;-89
2024/02/25 01:14:18;;;;;;;4.10;0.87;;;6.70;96.70;;;;;;5045100;28;20029;-91
2024/02/25 01:16:44;;;;;;;2.83;0.70;;;6.60;96.70;;;;;;5046688;28;20627;-93
2024/02/25 01:19:10;;;;;;;1.70;0.60;;;6.60;96.80;;;;;;5044841;28;20021;-94
2024/02/25 01:21:36;;;;;;;1.40;0.50;;;6.70;96.90;;;;;;5046861;28;20036;-92
2024/02/25 01:24:02;;;;;;;2.30;0.70;;;6.60;97.00;;;;;;5045498;28;20021;-94
2024/02/25 01:26:28;;;;;;;3.50;1.07;;;6.70;97.20;;;;;;5045636;28;20439;-94
2024/02/25 01:28:54;;;;;;;3.23;0.90;;;6.60;97.40;;;;;;5045584;28;20021;-93
2024/02/25 01:31:23;;;;;;;2.00;0.57;;;6.60;97.60;;;;;;5044839;28;20052;-93
2024/02/25 01:33:49;;;;;;;2.73;0.77;;;6.60;97.80;;;;;;5058137;28;20029;-93
2024/02/25 01:36:15;;;;;;;3.07;0.80;;;6.50;98.00;;;;;;5044841;28;20018;-93
2024/02/25 01:38:41;;;;;;;3.77;0.60;;;6.50;98.10;;;;;;5046228;28;20028;-90
2024/02/25 01:41:07;;;;;;;2.97;0.60;;;6.50;98.30;;;;;;5063013;28;20113;-91
2024/02/25 01:43:37;;;;;;;2.63;0.70;;;6.50;98.50;;;;;;5045810;28;20100;-91
2024/02/25 01:46:03;;;;;;;3.70;0.90;;;6.50;98.60;;;;;;5046686;28;20040;-93
2024/02/25 01:48:29;;;;;;;2.93;1.00;;;6.50;99.00;;;;;;5048274;28;20021;-92
2024/02/25 01:50:54;;;;;;;3.17;0.90;;;6.40;99.10;;;;;;5048260;28;20086;-92
2024/02/25 01:53:20;;;;;;;6.60;1.67;;;6.40;99.40;;;;;;5046105;28;20032;-90
2024/02/25 01:55:50;;;;;;;4.23;0.93;;;6.40;99.40;;;;;;5049357;28;20036;-89
2024/02/25 01:58:16;;;;;;;4.77;0.80;;;6.50;99.60;;;;;;5044848;28;20036;-89
2024/02/25 02:00:42;;;;;;;5.03;1.07;;;6.50;99.80;;;;;;5045599;28;20028;-92
2024/02/25 02:03:08;;;;;;;3.30;0.90;;;6.40;99.90;;;;;;5045342;28;20531;-91
2024/02/25 02:05:34;;;;;;;3.07;0.90;;;6.40;99.90;;;;;;5063190;28;20092;-92
2024/02/25 02:08:00;;;;;;;4.40;0.80;;;6.50;99.90;;;;;;5065938;28;20071;-90
2024/02/25 02:10:26;;;;;;;3.13;0.83;;;6.50;99.90;;;;;;5065238;28;20033;-90
2024/02/25 02:12:52;;;;;;;7.63;1.00;;;6.40;99.90;;;;;;5049455;28;20021;-90
2024/02/25 02:15:17;;;;;;;3.03;0.80;;;6.50;99.90;;;;;;5047961;28;20021;-92
2024/02/25 02:17:44;;;;;;;2.83;0.70;;;6.50;99.90;;;;;;5049305;28;20031;-92
2024/02/25 02:20:20;;;;;;;3.27;0.70;;;6.40;99.90;;;;;;5047925;28;20021;-91
2024/02/25 02:22:46;;;;;;;3.40;0.80;;;6.50;99.90;;;;;;5063464;28;20036;-89
2024/02/25 02:25:15;;;;;;;2.17;0.80;;;6.50;99.90;;;;;;5045205;28;20044;-95
2024/02/25 02:27:42;;;;;;;4.93;0.73;;;6.50;99.90;;;;;;5043078;28;20028;-90
2024/02/25 02:30:09;;;;;;;3.27;0.67;;;6.50;99.90;;;;;;5045291;28;20447;-90
2024/02/25 02:32:35;;;;;;;3.43;0.70;;;6.50;99.90;;;;;;5043492;28;20070;-91
2024/02/25 02:35:02;;;;;;;3.00;0.77;;;6.50;99.90;;;;;;5044446;28;20025;-92
2024/02/25 02:37:28;;;;;;;2.53;0.80;;;6.50;99.90;;;;;;5044161;28;20017;-92
2024/02/25 02:39:54;;;;;;;3.23;1.10;;;6.60;99.90;;;;;;5044117;28;20029;-94
2024/02/25 02:42:20;;;;;;;2.87;0.70;;;6.50;99.90;;;;;;5044692;28;20025;-91
2024/02/25 02:44:48;;;;;;;3.07;0.80;;;6.50;99.90;;;;;;5043292;28;20017;-92
2024/02/25 02:47:20;;;;;;;1.87;0.80;;;6.60;99.90;;;;;;5045039;28;20052;-90
2024/02/25 02:49:50;;;;;;;2.70;0.70;;;6.60;99.90;;;;;;5043552;28;20025;-93
2024/02/25 02:52:16;;;;;;;3.87;0.73;;;6.60;99.90;;;;;;5044282;28;20020;-93
2024/02/25 02:54:43;;;;;;;3.37;0.90;;;6.60;99.90;;;;;;5045504;28;20025;-93
2024/02/25 02:57:09;;;;;;;2.17;0.70;;;6.60;99.90;;;;;;5043753;28;20021;-93
2024/02/25 02:59:35;;;;;;;2.90;0.63;;;6.60;99.90;;;;;;5044585;28;20461;-93
2024/02/25 03:02:01;;;;;;;2.60;0.60;;;6.60;99.90;;;;;;5042855;28;20024;-92
2024/02/25 03:04:28;;;;;;;1.73;0.70;;;6.60;99.90;;;;;;5044439;28;20079;-90
2024/02/25 03:06:55;;;;;;;3.33;0.70;;;6.70;99.90;;;;;;5043518;28;20021;-92
2024/02/25 03:09:24;;;;;;;2.80;0.70;;;6.70;99.90;;;;;;5043782;28;20104;-93
2024/02/25 03:11:50;;;;;;;3.57;0.70;;;6.60;99.90;;;;;;5043584;28;20469;-91
2024/02/25 03:14:17;;;;;;;4.23;0.87;;;6.60;99.90;;;;;;5043295;28;20047;-92
2024/02/25 03:16:43;;;;;;;2.60;0.87;;;6.70;99.90;;;;;;5062294;28;20064;-91
2024/02/25 03:19:09;;;;;;;3.53;0.70;;;6.60;99.90;;;;;;5042889;28;20453;-90
2024/02/25 03:21:43;;;;;;;2.50;0.60;;;6.60;99.90;;;;;;5044851;28;20025;-89
2024/02/25 03:24:10;;;;;;;3.43;0.70;;;6.60;99.90;;;;;;5042964;28;20052;-90
2024/02/25 03:26:36;;;;;;;2.57;1.03;;;6.60;99.90;;;;;;5061285;28;20033;-94
2024/02/25 03:29:03;;;;;;;1.20;0.60;;;6.60;99.90;;;;;;5043510;28;20070;-91
2024/02/25 03:31:29;;;;;;;2.63;0.80;;;6.70;99.90;;;;;;5042439;28;20040;-89
2024/02/25 03:33:54;;;;;;;1.27;0.60;;;6.70;99.90;;;;;;5045925;28;20027;-92
2024/02/25 03:36:20;;;;;;;4.50;0.90;;;6.70;99.90;;;;;;5046733;28;20029;-89
2024/02/25 03:38:46;;;;;;;1.70;0.60;;;6.70;99.90;;;;;;5043030;28;20104;-90
2024/02/25 03:41:11;;;;;;;3.43;0.87;;;6.70;99.90;;;;;;5042845;28;20017;-89
2024/02/25 03:43:37;;;;;;;1.30;0.60;;;6.70;99.90;;;;;;5043548;28;20083;-89
2024/02/25 03:46:05;;;;;;;1.73;0.73;;;6.70;99.90;;;;;;5043160;28;20028;-91
2024/02/25 03:48:31;;;;;;;3.90;0.73;;;6.70;99.90;;;;;;5042579;28;20097;-91
2024/02/25 03:50:56;;;;;;;3.27;0.60;;;6.70;99.90;;;;;;5043948;28;20056;-94
2024/02/25 03:53:22;;;;;;;1.70;0.60;;;6.70;99.90;;;;;;5042924;28;20041;-91
2024/02/25 03:55:48;;;;;;;2.17;1.23;;;6.70;99.90;;;;;;5044052;28;20081;-92
2024/02/25 03:58:13;;;;;;;4.23;0.77;;;6.70;99.90;;;;;;5042618;28;20013;-92
2024/02/25 04:00:39;;;;;;;1.53;0.60;;;6.70;99.90;;;;;;5043541;28;20013;-91
2024/02/25 04:03:05;;;;;;;1.97;0.67;;;6.70;99.90;;;;;;5042754;28;20108;-91
2024/02/25 04:05:31;;;;;;;2.33;0.60;;;6.70;99.90;;;;;;5042775;28;20469;-94
2024/02/25 04:07:56;;;;;;;1.60;0.70;;;6.70;99.90;;;;;;5043799;28;20150;-91
2024/02/25 04:10:25;;;;;;;2.07;0.70;;;6.70;99.90;;;;;;5042140;28;20029;-90
2024/02/25 04:12:51;;;;;;;1.90;0.60;;;6.70;99.90;;;;;;5043668;28;20021;-91
2024/02/25 04:15:16;;;;;;;1.47;0.60;;;6.60;99.90;;;;;;5042533;28;20315;-89
2024/02/25 04:17:42;;;;;;;1.40;0.50;;;6.60;99.90;;;;;;5043504;28;20078;-90
2024/02/25 04:20:08;;;;;;;3.53;0.60;;;6.70;99.90;;;;;;5042832;28;20024;-91
2024/02/25 04:22:35;;;;;;;1.57;0.70;;;6.60;99.90;;;;;;5061741;28;20029;-90
2024/02/25 04:25:00;;;;;;;2.80;0.50;;;6.70;99.90;;;;;;5044490;28;20031;-93
2024/02/25 04:27:26;;;;;;;2.77;0.73;;;6.70;99.90;;;;;;5043559;28;20044;-92
2024/02/25 04:29:52;;;;;;;1.70;0.67;;;6.70;99.90;;;;;;5044306;28;20028;-91
2024/02/25 04:32:18;;;;;;;0.93;0.53;;;6.70;99.90;;;;;;5042344;28;20021;-92
2024/02/25 04:34:43;;;;;;;2.13;0.60;;;6.70;99.90;;;;;;5044852;28;20018;-92
2024/02/25 04:37:10;;;;;;;1.33;0.60;;;6.60;99.90;;;;;;5043951;28;20017;-94
2024/02/25 04:39:38;;;;;;;0.93;0.53;;;6.70;99.90;;;;;;5043872;28;20059;-92
2024/02/25 04:42:04;;;;;;;1.53;0.70;;;6.70;99.90;;;;;;5042814;28;20575;-92
2024/02/25 04:44:30;;;;;;;1.60;0.50;;;6.70;99.90;;;;;;5042461;28;20027;-90
2024/02/25 04:46:57;;;;;;;1.13;0.60;;;6.70;99.90;;;;;;5043595;28;20089;-91
2024/02/25 04:49:23;;;;;;;1.10;0.50;;;6.70;99.90;;;;;;5042314;28;20035;-90
2024/02/25 04:51:49;;;;;;;1.60;0.50;;;6.70;99.90;;;;;;5047040;28;20037;-92
2024/02/25 04:54:15;;;;;;;1.40;0.57;;;6.70;99.90;;;;;;5064139;28;20032;-91
2024/02/25 04:56:45;;;;;;;0.70;0.40;;;6.60;99.90;;;;;;5047169;28;20041;-93
2024/02/25 04:59:11;;;;;;;1.50;0.53;;;6.60;99.90;;;;;;5047695;28;20041;-92
2024/02/25 05:01:47;;;;;;;2.40;0.60;;;6.70;99.90;;;;;;5046439;28;20044;-92
2024/02/25 05:04:13;;;;;;;1.10;0.50;;;6.60;99.90;;;;;;5043632;28;20048;-92
2024/02/25 05:06:39;;;;;;;2.60;0.70;;;6.60;99.90;;;;;;5042449;28;20100;-91
2024/02/25 05:09:04;;;;;;;2.23;0.70;;;6.60;99.90;;;;;;5045195;28;20033;-90
2024/02/25 05:11:31;;;;;;;1.70;0.60;;;6.60;99.90;;;;;;5044933;28;20060;-92
2024/02/25 05:13:57;;;;;;;1.80;0.60;;;6.60;99.90;;;;;;5045384;28;20026;-91
2024/02/25 05:16:23;;;;;;;1.43;0.57;;;6.60;99.90;;;;;;5043556;28;20097;-90
2024/02/25 05:18:49;;;;;;;2.63;0.70;;;6.60;99.90;;;;;;5042670;28;20029;-94
2024/02/25 05:21:14;;;;;;;1.00;0.50;;;6.50;99.90;;;;;;5043189;28;20108;-91
2024/02/25 05:23:40;;;;;;;1.47;0.60;;;6.50;99.90;;;;;;5042278;28;20025;-90
2024/02/25 05:26:06;;;;;;;1.37;0.63;;;6.50;99.90;;;;;;5044368;28;20385;-90
2024/02/25 05:28:32;;;;;;;2.00;0.60;;;6.50;99.90;;;;;;5042101;28;20024;-89
2024/02/25 05:30:59;;;;;;;1.20;0.60;;;6.50;99.90;;;;;;5042086;28;20104;-93
2024/02/25 05:33:25;;;;;;;1.53;0.60;;;6.50;99.90;;;;;;5042436;28;20025;-91
2024/02/25 05:35:52;;;;;;;2.23;0.70;;;6.50;99.90;;;;;;5042307;28;20545;-90
2024/02/25 05:38:18;;;;;;;1.33;0.50;;;6.50;99.90;;;;;;5043077;28;20029;-92
2024/02/25 05:40:43;;;;;;;1.47;0.73;;;6.60;99.90;;;;;;5042087;28;20026;-90
2024/02/25 05:43:10;;;;;;;1.90;0.70;;;6.50;99.90;;;;;;5044345;28;20030;-89
2024/02/25 05:45:35;;;;;;;2.43;0.70;;;6.50;99.90;;;;;;5042675;28;20022;-90
2024/02/25 05:48:02;;;;;;;1.47;0.70;;;6.50;99.90;;;;;;5043312;28;20025;-94
2024/02/25 05:50:27;;;;;;;1.30;0.80;;;6.50;99.90;;;;;;5043470;28;20097;-89
2024/02/25 05:52:53;;;;;;;1.43;0.80;;;6.50;99.90;;;;;;5043072;28;20014;-91
2024/02/25 05:55:19;;;;;;;1.80;0.80;;;6.50;99.90;;;;;;5043502;28;20030;-89
2024/02/25 05:57:45;;;;;;;1.57;0.90;;;6.50;99.90;;;;;;5043504;28;20033;-90
2024/02/25 06:00:11;;;;;;;4.53;0.90;;;6.50;99.90;;;;;;5044691;28;20096;-88
2024/02/25 06:02:40;;;;;;;2.00;1.00;;;6.50;99.90;;;;;;5042776;28;20017;-89
2024/02/25 06:05:09;;;;;;;1.90;0.90;;;6.50;99.90;;;;;;5055301;28;20040;-90
2024/02/25 06:07:35;;;;;;;3.43;0.90;;;6.50;99.90;;;;;;5047838;28;20009;-91
2024/02/25 06:10:01;;;;;;;1.60;0.70;;;6.50;99.90;;;;;;5051493;28;20029;-90
2024/02/25 06:12:27;;;;;;;2.40;0.90;;;6.50;99.90;;;;;;5036100;28;20079;-90
2024/02/25 06:14:52;;;;;;;1.73;0.80;;;6.30;99.90;;;;;;5046853;28;20089;-90
2024/02/25 06:17:18;;;;;;;2.17;1.00;;;6.50;99.90;;;;;;5045914;28;20404;-91
2024/02/25 06:19:44;;;;;;;2.07;0.90;;;6.50;99.90;;;;;;5044766;28;20021;-90
2024/02/25 06:22:09;;;;;;;3.17;1.00;;;6.50;99.90;;;;;;5045212;28;20025;-93
2024/02/25 06:24:35;;;;;;;2.23;1.00;;;6.50;99.90;;;;;;5044431;28;20028;-92
2024/02/25 06:27:01;;;;;;;2.50;1.27;;;6.50;99.90;;;;;;5044973;28;20021;-93
2024/02/25 06:29:26;;;;;;;2.57;1.00;;;6.40;99.90;;;;;;5045271;28;20416;-91
2024/02/25 06:31:52;;;;;;;2.30;1.17;;;6.40;99.90;;;;;;5045425;28;20029;-91
2024/02/25 06:34:18;;;;;;;2.43;1.07;;;6.50;99.90;;;;;;5046819;28;20021;-91
2024/02/25 06:36:43;;;;;;;3.30;1.63;;;6.50;99.90;;;;;;5046051;28;20028;-92
2024/02/25 06:39:10;;;;;;;3.90;1.53;;;6.50;99.90;;;;;;5048670;28;20112;-91
2024/02/25 06:41:36;;;;;;;3.13;1.40;;;6.40;99.90;;;;;;5047624;28;20021;-90
2024/02/25 06:44:01;;;;;;;2.30;1.13;;;6.50;99.90;;;;;;5063666;28;20070;-90
2024/02/25 06:46:27;;;;;;;2.53;1.30;;;6.40;99.90;;;;;;5044835;28;20025;-92
2024/02/25 06:48:53;;;;;;;2.17;1.07;;;6.50;99.90;;;;;;5045100;28;20073;-92
2024/02/25 06:51:23;;;;;;;3.00;1.83;;;6.50;99.90;;;;;;5044905;28;20052;-90
2024/02/25 06:53:49;;;;;;;2.63;1.20;;;6.50;99.90;;;;;;5043499;28;20569;-91
2024/02/25 06:56:18;;;;;;;3.63;1.50;;;6.50;99.90;;;;;;5062719;28;20021;-92
2024/02/25 06:58:44;;;;;;;2.90;1.50;;;6.50;99.90;;;;;;5043675;28;20080;-87
2024/02/25 07:01:12;;;;;;;2.47;1.50;;;6.50;99.90;;;;;;5043523;28;20028;-88
2024/02/25 07:03:42;;;;;;;4.00;1.73;;;6.50;99.90;;;;;;5061296;28;20418;-87
2024/02/25 07:06:14;;;;;;;3.10;1.90;;;6.50;99.90;;;;;;5042139;28;20040;-86
2024/02/25 07:08:41;;;;;;;3.13;1.57;;;6.50;99.90;;;;;;5041624;28;20020;-88
2024/02/25 07:11:33;;;;;;;3.00;1.43;;;6.50;99.90;;;;;;5040813;28;20056;-87
2024/02/25 07:13:59;;;;;;;4.17;1.93;;;6.50;99.90;;;;;;5037434;28;20037;-87
2024/02/25 07:16:25;;;;;;;3.40;1.90;;;6.50;99.90;;;;;;5042341;28;20032;-88
2024/02/25 07:18:50;;;;;;;3.83;1.80;;;6.50;99.90;;;;;;5042626;28;20017;-87
2024/02/25 07:21:16;;;;;;;5.60;2.63;;;6.50;99.90;;;;;;5042080;28;20049;-86
2024/02/25 07:23:43;;;;;;;4.00;2.57;;;6.50;99.90;;;;;;5042305;28;20032;-87
2024/02/25 07:26:09;;;;;;;3.13;1.80;;;6.50;99.90;;;;;;5044044;28;20021;-87
2024/02/25 07:28:37;;;;;;;4.97;2.33;;;6.50;99.90;;;;;;5041976;28;20017;-88
2024/02/25 07:31:03;;;;;;;4.03;2.57;;;6.50;99.90;;;;;;5042702;28;20029;-88
2024/02/25 07:33:29;;;;;;;4.33;2.27;;;6.50;99.90;;;;;;5039761;28;20389;-87
2024/02/25 07:35:55;;;;;;;7.17;3.07;;;6.50;99.90;;;;;;5041835;28;20400;-87
2024/02/25 07:38:21;;;;;;;5.57;2.60;;;6.50;99.90;;;;;;5041748;28;20036;-87
2024/02/25 07:40:46;;;;;;;3.60;2.20;;;6.50;99.90;;;;;;5041907;28;20480;-87
2024/02/25 07:43:12;;;;;;;3.97;2.20;;;6.50;99.90;;;;;;5043100;28;20048;-89
2024/02/25 07:45:38;;;;;;;5.63;2.80;;;6.50;99.90;;;;;;5059721;28;20013;-86
2024/02/25 07:48:04;;;;;;;4.50;2.93;;;6.60;99.90;;;;;;5042634;28;20187;-86
2024/02/25 07:50:30;;;;;;;4.70;2.47;;;6.60;99.90;;;;;;5041036;28;20021;-87
2024/02/25 07:52:56;;;;;;;5.83;2.70;;;6.60;99.90;;;;;;5042436;28;20392;-87
2024/02/25 07:55:22;;;;;;;4.57;2.53;;;6.60;99.90;;;;;;5042753;28;20021;-87
2024/02/25 07:57:48;;;;;;;8.73;2.80;;;6.60;99.90;;;;;;5042407;28;20088;-87
2024/02/25 08:00:14;;;;;;;5.50;2.47;;;6.70;99.90;;;;;;5043334;28;20055;-87
2024/02/25 08:02:40;;;;;;;5.50;2.80;;;6.70;99.90;;;;;;5042112;28;20021;-87
2024/02/25 08:05:08;;;;;;;5.77;2.40;;;6.70;99.90;;;;;;5042575;28;20075;-86
2024/02/25 08:07:34;;;;;;;5.20;2.70;;;6.80;99.90;;;;;;5042224;28;20061;-87
2024/02/25 08:10:00;;;;;;;5.23;2.60;;;6.80;99.90;;;;;;5042254;28;20021;-87
2024/02/25 08:12:26;;;;;;;4.47;2.47;;;6.80;99.90;;;;;;5041984;28;20024;-87
2024/02/25 08:14:54;;;;;;;5.13;2.60;;;6.80;99.90;;;;;;5041966;28;20045;-87
2024/02/25 08:17:20;;;;;;;3.87;2.30;;;6.80;99.90;;;;;;5043031;28;20028;-88
2024/02/25 08:19:46;;;;;;;6.67;3.03;;;6.90;99.90;;;;;;5041421;28;20054;-87
2024/02/25 08:22:12;;;;;;;4.70;3.17;;;6.90;99.90;;;;;;5057305;28;20036;-89
2024/02/25 08:24:38;;;;;;;4.73;2.93;;;6.90;99.90;;;;;;5041725;28;20590;-87
2024/02/25 08:27:04;;;;;;;4.90;2.70;;;6.90;99.90;;;;;;5048117;28;20025;-86
2024/02/25 08:29:30;;;;;;;6.13;2.70;;;7.00;99.90;;;;;;5046185;28;20020;-88
2024/02/25 08:31:56;;;;;;;4.90;3.20;;;7.00;99.90;;;;;;5045196;28;20381;-88
2024/02/25 08:34:21;;;;;;;5.03;2.60;;;7.00;99.90;;;;;;5046668;28;20041;-88
2024/02/25 08:36:47;;;;;;;4.67;2.70;;;7.00;99.90;;;;;;5045913;28;20024;-87
2024/02/25 08:39:13;;;;;;;4.87;2.57;;;7.00;99.90;;;;;;5065002;28;20047;-87
2024/02/25 08:41:39;;;;;;;5.80;2.50;;;7.00;99.90;;;;;;5052923;28;20020;-88
2024/02/25 08:44:05;;;;;;;7.37;2.87;;;7.00;99.90;;;;;;5058584;28;20108;-87
2024/02/25 08:46:31;;;;;;;3.67;1.80;;;7.00;99.90;;;;;;5050383;28;20028;-89
2024/02/25 08:48:56;;;;;;;2.60;1.50;;;7.00;99.90;;;;;;5049121;28;20032;-89
2024/02/25 08:51:22;;;;;;;3.30;1.60;;;7.00;99.90;;;;;;5064645;28;20443;-89
2024/02/25 08:53:48;;;;;;;4.23;1.50;;;7.00;99.90;;;;;;5045787;28;20045;-88
2024/02/25 08:56:14;;;;;;;5.30;1.90;;;7.00;99.90;;;;;;5047221;28;20040;-89
2024/02/25 08:58:40;;;;;;;3.40;2.10;;;7.00;99.90;;;;;;5063522;28;20422;-88
2024/02/25 09:01:06;;;;;;;4.80;2.40;;;7.00;99.90;;;;;;5046009;28;20509;-90
2024/02/25 09:03:31;;;;;;;4.57;2.33;;;7.10;99.90;;;;;;5063776;28;20025;-89
2024/02/25 09:05:57;;;;;;;4.90;2.17;;;7.10;99.90;;;;;;5045987;28;20041;-82
2024/02/25 09:08:23;;;;;;;3.53;2.20;;;7.10;99.90;;;;;;5063431;28;20028;-86
2024/02/25 09:10:49;;;;;;;5.17;2.70;;;7.30;99.90;;;;;;5046291;28;20025;-87
2024/02/25 09:13:14;;;;;;;7.60;3.07;;;7.30;99.90;;;;;;5045090;28;20028;-88
2024/02/25 09:15:40;;;;;;;6.17;2.50;;;7.30;99.90;;;;;;5062584;28;20021;-87
2024/02/25 09:18:06;;;;;;;4.50;2.40;;;7.40;99.90;;;;;;5064263;28;20021;-87
2024/02/25 09:20:33;;;;;;;4.60;3.00;;;7.40;99.90;;;;;;5045001;28;20009;-87
2024/02/25 09:23:05;;;;;;;3.87;2.57;;;7.40;99.90;;;;;;5045991;28;20024;-86
2024/02/25 09:25:35;;;;;;;5.03;2.30;;;7.50;99.90;;;;;;5065129;28;20097;-87
2024/02/25 09:28:04;;;;;;;5.37;2.53;;;7.50;99.90;;;;;;5046358;28;20045;-87
2024/02/25 09:30:31;;;;;;;4.50;2.53;;;7.60;99.90;;;;;;5048413;28;20072;-86
2024/02/25 09:32:57;;;;;;;6.77;2.47;;;7.60;99.90;;;;;;5065339;28;20025;-86
2024/02/25 09:35:23;;;;;;;5.30;2.20;;;7.60;99.90;;;;;;5045701;28;20037;-87
2024/02/25 09:37:49;;;;;;;3.37;1.80;;;7.60;99.90;;;;;;5042215;28;20071;-87
2024/02/25 09:40:15;;;;;;;3.93;2.43;;;7.70;99.90;;;;;;5040683;28;20088;-87
2024/02/25 09:42:48;;;;;;;6.00;2.70;;;7.60;99.90;;;;;;5061763;28;20021;-88
2024/02/25 09:45:22;;;;;;;3.63;1.80;;;7.70;99.90;;;;;;5024203;28;20094;-87
2024/02/25 09:47:52;;;;;;;5.05;1.90;;;7.70;99.90;;;;;;5044548;28;20033;-86
2024/02/25 09:50:19;;;;;;;3.87;1.83;;;7.80;99.90;;;;;;5044095;28;20504;-88
2024/02/25 09:52:50;;;;;;;3.63;2.03;;;7.80;99.90;;;;;;5044828;28;20025;-87
2024/02/25 09:55:15;;;;;;;2.93;1.93;;;7.80;99.90;;;;;;5044266;28;20037;-89
2024/02/25 09:57:42;;;;;;;3.37;1.97;;;7.90;99.90;;;;;;5044097;28;20033;-87
2024/02/25 10:00:09;;;;;;;3.27;1.77;;;7.90;99.90;;;;;;5044607;28;20074;-87
2024/02/25 10:02:37;;;;;;;3.57;1.57;;;8.00;99.90;;;;;;5060490;28;20518;-87
2024/02/25 10:05:03;;;;;;;3.10;1.53;;;8.10;99.90;;;;;;5041292;28;20049;-87
2024/02/25 10:07:32;;;;;;;3.23;1.60;;;8.20;99.90;;;;;;5039887;28;20048;-87
2024/02/25 10:09:58;;;;;;;2.77;1.20;;;8.30;99.90;;;;;;5040182;28;20032;-86
2024/02/25 10:12:24;;;;;;;5.10;1.60;;;8.40;99.90;;;;;;5038482;28;20034;-87
2024/02/25 10:14:53;;;;;;;4.30;1.70;;;8.50;99.90;;;;;;5040792;28;20551;-88
2024/02/25 10:17:22;;;;;;;2.83;1.57;;;8.60;99.90;;;;;;5054695;28;20025;-87
2024/02/25 10:19:52;;;;;;;3.00;1.67;;;8.70;99.90;;;;;;5060286;28;20021;-88
2024/02/25 10:22:18;;;;;;;3.47;1.40;;;8.90;99.90;;;;;;5061346;28;20025;-89
2024/02/25 10:24:44;;;;;;;3.83;1.43;;;9.00;99.90;;;;;;5059882;28;20071;-88
2024/02/25 10:27:12;;;;;;;3.20;1.73;;;9.10;99.90;;;;;;5061828;28;20055;-88
2024/02/25 10:29:57;;;;;;;3.83;1.73;;;9.20;99.90;;;;;;5060605;28;20100;-88
2024/02/25 10:32:24;;;;;;;4.10;1.67;;;9.60;99.90;;;;;;5060123;28;20436;-87
2024/02/25 10:34:52;;;;;;;7.68;2.17;;;9.90;99.90;;;;;;5060888;28;20021;-88
2024/02/25 10:37:23;;;;;;;4.32;1.92;;;10.10;99.90;;;;;;5059141;28;20040;-90
2024/02/25 10:39:53;;;;;;;3.20;1.80;;;10.10;99.90;;;;;;5060109;28;20021;-88
2024/02/25 10:42:29;;;;;;;4.32;2.22;;;10.20;99.90;;;;;;5047487;28;20033;-89
2024/02/25 10:44:59;;;;;;;3.80;1.92;;;10.20;99.90;;;;;;5039426;28;20033;-87
2024/02/25 10:47:30;;;;;;;3.63;2.08;;;10.20;99.90;;;;;;5040568;28;20022;-88
2024/02/25 10:50:02;;;;;;;5.97;2.80;;;10.20;99.90;;;;;;5038598;28;20040;-87
2024/02/25 10:52:28;;;;;;;4.38;2.03;;;10.10;99.90;;;;;;5039953;28;20040;-87
2024/02/25 10:54:57;;;;;;;5.88;2.58;;;10.00;99.90;;;;;;5040758;28;20014;-87
2024/02/25 10:57:22;;;;;;;6.03;3.05;;;10.00;99.90;;;;;;5043562;28;20033;-88
2024/02/25 10:59:49;;;;;;;4.53;2.53;;;9.90;99.90;;;;;;5039944;28;20025;-88
2024/02/25 11:02:19;;;;;;;5.47;2.70;;;9.90;99.90;;;;;;5039340;28;20025;-88
2024/02/25 11:04:46;;;;;;;5.13;3.07;;;9.90;99.90;;;;;;5040436;28;20048;-88
2024/02/25 11:07:15;;;;;;;4.88;2.90;;;9.80;99.90;;;;;;5039629;28;20026;-89
2024/02/25 11:09:43;;;;;;;6.30;2.80;;;9.80;99.90;;;;;;5036067;28;20129;-89
2024/02/25 11:12:23;;;;;;;4.47;2.80;;;9.70;99.90;;;;;;5041098;28;20029;-88
2024/02/25 11:15:08;;;;;;;5.80;3.13;;;9.70;99.90;;;;;;5038258;28;20037;-88
2024/02/25 11:17:40;;;;;;;4.97;2.95;;;9.70;99.90;;;;;;5046618;28;20071;-88
2024/02/25 11:20:08;;;;;;;5.37;2.83;;;9.60;99.80;;;;;;5060724;28;20045;-89
2024/02/25 11:22:44;;;;;;;4.87;3.20;;;9.50;99.90;;;;;;5062301;28;20029;-90
2024/02/25 11:25:32;;;;;;;6.90;2.90;;;9.50;99.90;;;;;;5059069;28;20021;-88
2024/02/25 11:28:14;;;;;;;6.03;3.33;;;9.40;99.90;;;;;;5059361;28;20028;-87
2024/02/25 11:30:43;;;;;;;5.43;2.53;;;9.40;99.90;;;;;;5060433;28;20037;-87
2024/02/25 11:33:42;;;;;;;4.70;2.37;;;9.30;99.90;;;;;;5042577;28;20030;-86
2024/02/25 11:36:19;;;;;;;6.80;2.97;;;9.30;99.90;;;;;;5038215;28;20029;-87
2024/02/25 11:38:47;;;;;;;6.97;2.97;;;9.40;99.90;;;;;;5041381;28;20034;-88
2024/02/25 11:41:13;;;;;;;4.30;2.43;;;9.40;99.90;;;;;;5038342;28;20060;-86
2024/02/25 11:43:40;;;;;;;3.57;2.07;;;9.40;99.90;;;;;;5039869;28;20041;-87
2024/02/25 11:46:07;;;;;;;4.17;2.30;;;9.40;99.90;;;;;;5038072;28;20033;-85
2024/02/25 11:48:34;;;;;;;6.20;3.10;;;9.40;99.90;;;;;;5059166;28;20017;-87
2024/02/25 11:51:00;;;;;;;5.27;2.53;;;9.50;99.90;;;;;;5039035;28;20124;-85
2024/02/25 11:53:26;;;;;;;5.33;2.70;;;9.40;99.90;;;;;;5056794;28;20045;-87
2024/02/25 11:55:52;;;;;;;4.43;2.07;;;9.50;99.90;;;;;;5059535;28;20029;-90
2024/02/25 11:58:19;;;;;;;4.10;1.97;;;9.70;99.90;;;;;;5042294;28;20056;-88
2024/02/25 12:00:45;;;;;;;5.03;2.00;;;10.00;99.90;;;;;;5039067;28;20026;-88
2024/02/25 12:03:12;;;;;;;4.82;2.22;;;10.10;99.90;;;;;;5038507;28;20029;-87
2024/02/25 12:05:37;;;;;;;4.68;2.20;;;10.30;99.90;;;;;;5039662;28;20071;-88
2024/02/25 12:08:03;;;;;;;6.63;2.08;;;10.40;99.90;;;;;;5038887;28;20022;-88
2024/02/25 12:10:30;;;;;;;4.60;2.13;;;10.40;99.90;;;;;;5039916;28;20063;-89
2024/02/25 12:12:56;;;;;;;4.90;1.92;;;10.50;99.90;;;;;;5046290;28;20033;-87
2024/02/25 12:15:26;;;;;;;3.90;1.88;;;10.60;99.90;;;;;;5037879;28;20100;-89
2024/02/25 12:17:52;;;;;;;6.53;2.72;;;10.60;99.90;;;;;;5046156;28;20048;-88
2024/02/25 12:20:19;;;;;;;5.43;1.95;;;10.80;99.90;;;;;;5038556;28;20022;-88
2024/02/25 12:22:48;;;;;;;4.35;1.55;;;11.10;99.90;;;;;;5042483;28;20085;-89
2024/02/25 12:25:31;;;;;;;2.85;0.82;;;11.90;99.90;;;;;;5039728;28;20032;-89
2024/02/25 12:28:09;;;;;;;3.72;1.00;;;12.80;99.90;;;;;;5050620;28;20009;-90
2024/02/25 12:30:37;;;;;;;4.20;0.80;;;13.50;99.90;;;;;;5059928;28;20436;-87
2024/02/25 12:33:05;;;;;;;2.80;0.82;;;14.10;99.90;;;;;;5042290;28;20052;-89
2024/02/25 12:35:31;;;;;;;2.03;0.60;;;14.50;99.90;;;;;;5059681;28;20556;-88
2024/02/25 12:37:57;;;;;;;1.15;0.43;;;14.80;97.40;;;;;;5048283;28;20021;-88
2024/02/25 12:40:23;;;;;;;2.60;0.52;;;15.00;96.30;;;;;;5038942;28;20342;-90
2024/02/25 12:42:53;;;;;;;6.70;0.57;;;15.40;95.40;;;;;;5039914;28;20129;-88
2024/02/25 12:45:19;;;;;;;1.23;0.45;;;15.70;93.00;;;;;;5040327;28;20021;-89
2024/02/25 12:47:45;;;;;;;2.60;0.50;;;15.90;91.00;;;;;;5040492;28;20053;-89
2024/02/25 12:50:11;;;;;;;2.95;0.47;;;16.00;90.10;;;;;;5038402;28;20036;-88
2024/02/25 12:52:41;;;;;;;3.15;0.60;;;15.90;86.90;;;;;;5039775;28;20013;-89
2024/02/25 12:55:07;;;;;;;3.35;0.60;;;15.70;84.90;;;;;;5039814;28;20041;-88